Terminal Aerodrome Forecast
Issued by NWS

Home | Current Version | Previous Version | Graphics & Text | Print | Product List | Glossary Off
Versions: 1 2 3 4 5 6 7 8 9 10 11 12 13 14 15 16 17 18 19 20 21 22 23 24 25 26 27 28 29 30

000
FTUS43 KDDC 311120
TAFHYS
TAF
KHYS 311120Z 3112/0112 VRB10KT P6SM VCTS SCT100CB
     FM311330 18022G31KT P6SM FEW250
     FM312300 17017G24KT P6SM SCT080 PROB30 0100/0104 VRB30G45KT 3SM
      TSRA BKN060CB
     FM010400 VRB06KT P6SM SCT250=

USA.gov is the U.S. government's official web portal to all federal, state and local government web resources and services.